Time;durP1;ratioP1;P1;durP2;ratioP2;P2;SDS_P1;SDS_P2;PMS_P1;PMS_P2;Temp;Humidity;BMP_temperature;BMP_pressure;BME280_temperature;BME280_humidity;BME280_pressure;Samples;Min_cycle;Max_cycle;Signal;HPM_P1;HPM_P2
2023/06/18 00:02:01;;;;;;;8.43;6.63;;;;;;;-145.18;100.00;46697.50;5074797;28;20098;-58
2023/06/18 00:04:27;;;;;;;8.60;6.80;;;;;;;-145.18;100.00;46734.63;5074923;28;20067;-58
2023/06/18 00:06:54;;;;;;;12.20;7.57;;;;;;;-145.18;100.00;47000.28;5075018;28;20059;-58
2023/06/18 00:09:20;;;;;;;9.27;7.60;;;;;;;-145.18;100.00;47148.75;5074601;28;20050;-58
2023/06/18 00:11:46;;;;;;;10.13;7.20;;;;;;;-145.18;100.00;47121.41;5074978;28;20036;-59
2023/06/18 00:14:11;;;;;;;8.50;7.00;;;;;;;-145.18;100.00;47144.84;5075122;28;20439;-58
2023/06/18 00:16:36;;;;;;;10.50;8.33;;;;;;;-145.18;100.00;47135.09;5074907;28;20119;-58
2023/06/18 00:19:02;;;;;;;11.13;8.63;;;;;;;-145.18;100.00;47133.13;5075341;28;20504;-58
2023/06/18 00:21:27;;;;;;;9.70;7.27;;;;;;;-145.18;100.00;47129.22;5075035;28;20098;-58
2023/06/18 00:23:53;;;;;;;14.40;8.00;;;;;;;-145.18;100.00;47105.78;5075840;28;20036;-58
2023/06/18 00:26:18;;;;;;;13.83;7.37;;;;;;;-145.18;100.00;47117.50;5075201;28;20031;-58
2023/06/18 00:28:44;;;;;;;8.33;6.67;;;;;;;-145.18;100.00;47113.59;5075325;28;20472;-58
2023/06/18 00:31:11;;;;;;;7.30;6.07;;;;;;;-145.18;100.00;47137.03;5074806;28;20050;-58
2023/06/18 00:33:37;;;;;;;9.57;6.03;;;;;;;-145.18;100.00;47174.16;5073835;28;20124;-58
2023/06/18 00:36:04;;;;;;;9.40;6.77;;;;;;;-145.18;100.00;47090.16;5093649;28;20062;-58
2023/06/18 00:38:33;;;;;;;11.07;6.77;;;;;;;-145.18;100.00;47092.09;5065443;28;20028;-58
2023/06/18 00:40:58;;;;;;;10.37;5.83;;;;;;;-145.18;100.00;47084.28;5073010;28;20032;-59
2023/06/18 00:43:27;;;;;;;10.23;6.83;;;;;;;-145.18;100.00;47094.06;5073438;28;20020;-58
2023/06/18 00:45:54;;;;;;;9.07;7.00;;;;;;;-145.18;100.00;47074.53;5076761;28;20032;-58
2023/06/18 00:48:20;;;;;;;8.97;6.27;;;;;;;-145.18;100.00;47082.34;5073524;28;20033;-59
2023/06/18 00:50:46;;;;;;;9.60;7.40;;;;;;;-145.18;100.00;47082.34;5074139;28;20028;-59
2023/06/18 00:53:13;;;;;;;11.77;7.00;;;;;;;-145.18;100.00;47090.16;5073559;28;20031;-58
2023/06/18 00:55:41;;;;;;;11.47;6.97;;;;;;;-145.18;100.00;47088.19;5073041;28;20496;-59
2023/06/18 00:58:06;;;;;;;9.80;7.27;;;;;;;-145.18;100.00;47097.97;5067181;28;20075;-58
2023/06/18 01:00:34;;;;;;;9.77;7.33;;;;;;;-145.18;100.00;47107.72;5093158;28;20036;-58
2023/06/18 01:03:07;;;;;;;11.73;6.90;;;;;;;-145.18;100.00;47097.97;5092757;28;20048;-59
2023/06/18 01:05:33;;;;;;;10.47;6.90;;;;;;;-145.18;100.00;47090.16;5092651;28;20032;-58
2023/06/18 01:08:07;;;;;;;10.63;7.20;;;;;;;-145.18;100.00;47105.78;5091600;28;20064;-58
2023/06/18 01:10:38;;;;;;;9.27;6.60;;;;;;;-145.18;100.00;47125.31;5068051;28;20038;-58
2023/06/18 01:13:07;;;;;;;9.63;6.53;;;;;;;-145.18;100.00;47103.81;5085119;28;20036;-58
2023/06/18 01:15:33;;;;;;;10.00;7.03;;;;;;;-145.18;100.00;47127.28;5072888;28;20033;-61
2023/06/18 01:17:59;;;;;;;10.43;7.10;;;;;;;-145.18;100.00;47127.28;5073526;28;20036;-61
2023/06/18 01:20:31;;;;;;;9.67;6.60;;;;;;;-145.18;100.00;47139.00;5067952;28;20055;-61
2023/06/18 01:23:03;;;;;;;10.70;6.83;;;;;;;-145.18;100.00;47156.56;5093357;28;20048;-61
2023/06/18 01:25:33;;;;;;;10.40;7.17;;;;;;;-145.18;100.00;47162.44;5092676;28;20089;-62
2023/06/18 01:28:07;;;;;;;12.30;6.97;;;;;;;-145.18;100.00;47156.56;5092748;28;20032;-61
2023/06/18 01:30:36;;;;;;;9.70;6.73;;;;;;;-145.18;100.00;47140.94;5092915;28;20452;-61
2023/06/18 01:33:03;;;;;;;9.70;6.97;;;;;;;-145.18;100.00;47152.66;5083716;28;20111;-61
2023/06/18 01:35:29;;;;;;;15.87;8.60;;;;;;;-145.18;100.00;47148.75;5085632;28;20115;-61
2023/06/18 01:38:31;;;;;;;9.83;7.40;;;;;;;-145.18;100.00;47156.56;5072924;28;20131;-61
2023/06/18 01:41:15;;;;;;;9.27;6.67;;;;;;;-145.18;100.00;47158.53;5072631;28;20020;-61
2023/06/18 01:43:51;;;;;;;9.33;7.47;;;;;;;-145.18;100.00;47119.47;5078738;28;20042;-61
2023/06/18 01:46:20;;;;;;;;;;;;;;;-145.18;100.00;47074.53;5073846;28;20029;-62
2023/06/18 01:48:51;;;;;;;11.47;8.23;;;;;;;-145.18;100.00;47017.88;5079310;28;19969;-61
2023/06/18 01:51:19;;;;;;;12.17;8.10;;;;;;;-145.18;100.00;46861.59;5091170;28;20032;-61
2023/06/18 01:53:47;;;;;;;9.47;7.87;;;;;;;-145.18;100.00;46804.94;5072538;28;20073;-61
2023/06/18 01:56:13;;;;;;;12.77;7.60;;;;;;;-145.18;100.00;46728.75;5072225;28;20033;-61
2023/06/18 01:58:42;;;;;;;13.23;8.07;;;;;;;-145.18;100.00;46720.94;5080870;28;20066;-61
2023/06/18 02:01:09;;;;;;;12.60;8.00;;;;;;;-145.18;100.00;46662.34;5092567;28;20056;-61
2023/06/18 02:03:35;;;;;;;11.63;7.17;;;;;;;-145.18;100.00;46609.59;5063774;28;20043;-61
2023/06/18 02:06:00;;;;;;;13.20;8.13;;;;;;;-145.18;100.00;46572.50;5078445;28;20032;-61
2023/06/18 02:08:26;;;;;;;18.57;7.77;;;;;;;-145.18;100.00;46551.00;5090935;28;20103;-61
2023/06/18 02:10:51;;;;;;;9.33;6.80;;;;;;;-145.18;100.00;46535.38;5069165;28;20043;-61
2023/06/18 02:13:17;;;;;;;12.27;7.77;;;;;;;-145.18;100.00;46504.13;5090713;28;20495;-62
2023/06/18 02:15:42;;;;;;;11.87;8.27;;;;;;;-145.18;100.00;46549.06;5089423;28;20036;-61
2023/06/18 02:18:08;;;;;;;12.10;7.60;;;;;;;-145.18;100.00;46535.38;5080944;28;20086;-61
2023/06/18 02:20:35;;;;;;;10.57;7.67;;;;;;;-145.18;100.00;46527.56;5090898;28;20064;-62
2023/06/18 02:23:00;;;;;;;12.87;7.73;;;;;;;-145.18;100.00;46523.66;5091754;28;20067;-62
2023/06/18 02:25:32;;;;;;;8.90;7.53;;;;;;;-145.18;100.00;46541.25;5091210;28;20055;-59
2023/06/18 02:28:02;;;;;;;9.53;7.30;;;;;;;-145.18;100.00;46515.84;5091702;28;20028;-59
2023/06/18 02:30:31;;;;;;;9.90;7.30;;;;;;;-145.18;100.00;46529.53;5079317;28;20498;-59
2023/06/18 02:33:06;;;;;;;9.23;7.37;;;;;;;-145.18;100.00;46523.66;5084124;28;20028;-58
2023/06/18 02:35:31;;;;;;;10.60;7.50;;;;;;;-145.18;100.00;46531.47;5087674;28;20032;-59
2023/06/18 02:37:57;;;;;;;10.27;7.83;;;;;;;-145.18;100.00;46531.47;5083484;28;20118;-58
2023/06/18 02:40:23;;;;;;;14.77;7.57;;;;;;;-145.18;100.00;46539.28;5093395;28;20028;-59
2023/06/18 02:42:48;;;;;;;10.27;8.00;;;;;;;-145.18;100.00;46541.25;5091778;28;20048;-58
2023/06/18 02:45:19;;;;;;;10.17;7.50;;;;;;;-145.18;100.00;46510.00;5086437;28;20547;-58
2023/06/18 02:47:46;;;;;;;10.77;7.60;;;;;;;-145.18;100.00;46521.72;5078673;28;20111;-58
2023/06/18 02:50:12;;;;;;;13.37;8.03;;;;;;;-145.18;100.00;46515.84;5071374;28;20032;-58
2023/06/18 02:52:38;;;;;;;11.93;8.17;;;;;;;-145.18;100.00;46517.81;5083905;28;20035;-59
2023/06/18 02:55:05;;;;;;;12.60;8.73;;;;;;;-145.18;100.00;46515.84;5087779;28;20033;-59
2023/06/18 02:57:31;;;;;;;12.80;8.53;;;;;;;-145.18;100.00;46498.28;5071668;28;20066;-58
2023/06/18 02:59:56;;;;;;;12.03;8.03;;;;;;;-145.18;100.00;46515.84;5072167;28;20476;-58
2023/06/18 03:02:22;;;;;;;13.23;8.27;;;;;;;-145.18;100.00;46511.94;5072197;28;20079;-58
2023/06/18 03:04:47;;;;;;;16.67;9.20;;;;;;;-145.18;100.00;46504.13;5054274;28;20035;-58
2023/06/18 03:07:13;;;;;;;14.40;8.70;;;;;;;-145.18;100.00;46513.91;5071872;28;20536;-59
2023/06/18 03:09:38;;;;;;;10.93;8.30;;;;;;;-145.18;100.00;46513.91;5072008;28;20032;-58
2023/06/18 03:12:04;;;;;;;12.60;8.50;;;;;;;-145.18;100.00;46511.94;5071504;28;20048;-59
2023/06/18 03:14:29;;;;;;;10.87;8.40;;;;;;;-145.18;100.00;46508.03;5071669;28;20028;-58
2023/06/18 03:16:56;;;;;;;13.20;8.33;;;;;;;-145.18;100.00;46504.13;5071542;28;20396;-59
2023/06/18 03:19:22;;;;;;;12.90;8.63;;;;;;;-145.18;100.00;46506.09;5071199;28;20559;-59
2023/06/18 03:21:47;;;;;;;11.00;8.80;;;;;;;-145.18;100.00;46502.19;5071962;28;20081;-59
2023/06/18 03:24:14;;;;;;;13.07;9.27;;;;;;;-145.18;100.00;46502.19;5071500;28;20492;-58
2023/06/18 03:26:41;;;;;;;14.40;9.10;;;;;;;-145.18;100.00;46515.84;5075419;28;20060;-59
2023/06/18 03:29:07;;;;;;;13.07;8.87;;;;;;;-145.18;100.00;46502.19;5075631;28;20093;-59
2023/06/18 03:31:33;;;;;;;12.40;8.83;;;;;;;-145.18;100.00;46502.19;5075748;28;20036;-59
2023/06/18 03:34:01;;;;;;;12.60;8.50;;;;;;;-145.18;100.00;46502.19;5075006;28;20028;-58
2023/06/18 03:36:27;;;;;;;12.30;8.40;;;;;;;-145.18;100.00;46515.84;5075428;28;20057;-58
2023/06/18 03:38:52;;;;;;;15.03;9.10;;;;;;;-145.18;100.00;46511.94;5075135;28;20500;-58
2023/06/18 03:41:18;;;;;;;14.27;8.83;;;;;;;-145.18;100.00;46511.94;5074863;28;20132;-58
2023/06/18 03:43:43;;;;;;;12.97;8.67;;;;;;;-145.18;100.00;46517.81;5074651;28;20051;-59
2023/06/18 03:46:08;;;;;;;15.23;8.77;;;;;;;-145.18;100.00;46508.03;5087803;28;20058;-58
2023/06/18 03:48:36;;;;;;;14.23;9.03;;;;;;;-145.18;100.00;46508.03;5075686;28;20028;-58
2023/06/18 03:51:04;;;;;;;12.73;9.03;;;;;;;-145.18;100.00;46515.84;5075208;28;20032;-58
2023/06/18 03:53:29;;;;;;;14.53;8.63;;;;;;;-145.18;100.00;46506.09;5074835;28;20094;-58
2023/06/18 03:55:55;;;;;;;13.63;8.40;;;;;;;-145.18;100.00;46517.81;5074569;28;20730;-58
2023/06/18 03:58:20;;;;;;;15.90;9.90;;;;;;;-145.18;100.00;46506.09;5062600;28;20368;-58
2023/06/18 04:00:46;;;;;;;12.83;9.10;;;;;;;-145.18;100.00;46515.84;5094550;28;20032;-58
2023/06/18 04:03:12;;;;;;;14.47;9.07;;;;;;;-145.18;100.00;46511.94;5094330;28;20023;-58
2023/06/18 04:05:38;;;;;;;12.23;8.00;;;;;;;-145.18;100.00;46506.09;5094268;28;20032;-58
2023/06/18 04:08:04;;;;;;;15.87;9.47;;;;;;;-145.18;100.00;46504.13;5080162;28;20047;-58
2023/06/18 04:10:29;;;;;;;18.23;9.67;;;;;;;-145.18;100.00;46515.84;5089249;28;20032;-59
2023/06/18 04:12:54;;;;;;;16.20;9.43;;;;;;;-145.18;100.00;46519.75;5085841;28;20116;-58
2023/06/18 04:15:21;;;;;;;13.10;9.17;;;;;;;-145.18;100.00;46506.09;5086877;28;20041;-58
2023/06/18 04:17:46;;;;;;;14.53;9.30;;;;;;;-145.18;100.00;46508.03;5083257;28;20040;-58
2023/06/18 04:20:12;;;;;;;13.07;8.93;;;;;;;-145.18;100.00;46511.94;5031600;28;20396;-58
2023/06/18 04:22:37;;;;;;;16.13;9.60;;;;;;;-145.18;100.00;46511.94;5087217;28;20051;-58
2023/06/18 04:25:03;;;;;;;17.40;10.70;;;;;;;-145.18;100.00;46513.91;5073957;28;20040;-58
2023/06/18 04:27:28;;;;;;;15.87;10.40;;;;;;;-145.18;100.00;46511.94;5058516;28;20039;-58
2023/06/18 04:29:54;;;;;;;13.07;10.23;;;;;;;-145.18;100.00;46513.91;5078129;28;20048;-57
2023/06/18 04:32:19;;;;;;;17.33;10.33;;;;;;;-145.18;100.00;46513.91;5074574;28;20067;-58
2023/06/18 04:34:44;;;;;;;14.63;10.70;;;;;;;-145.18;100.00;46511.94;5066293;28;20032;-59
2023/06/18 04:37:10;;;;;;;15.77;10.40;;;;;;;-145.18;100.00;46519.75;5077701;28;20422;-59
2023/06/18 04:39:35;;;;;;;13.80;9.63;;;;;;;-145.18;100.00;46513.91;5086243;28;20048;-58
2023/06/18 04:42:01;;;;;;;18.27;10.50;;;;;;;-145.18;100.00;46515.84;5082031;28;20458;-58
2023/06/18 04:44:26;;;;;;;17.17;10.27;;;;;;;-145.18;100.00;46511.94;5061690;28;20040;-58
2023/06/18 04:46:51;;;;;;;18.17;10.33;;;;;;;-145.18;100.00;46515.84;5086948;28;20024;-58
2023/06/18 04:49:17;;;;;;;15.40;11.43;;;;;;;-145.18;100.00;46515.84;5076345;28;20070;-58
2023/06/18 04:51:43;;;;;;;14.63;10.00;;;;;;;-145.18;100.00;46515.84;5058357;28;20045;-58
2023/06/18 04:54:09;;;;;;;17.33;10.50;;;;;;;-145.18;100.00;46504.13;5074022;28;20036;-61
2023/06/18 04:56:35;;;;;;;14.40;10.10;;;;;;;-145.18;100.00;46515.84;5090365;28;20048;-61
2023/06/18 04:59:00;;;;;;;16.53;10.97;;;;;;;-145.18;100.00;46513.91;5087190;28;20540;-61
2023/06/18 05:01:26;;;;;;;18.90;11.33;;;;;;;-145.18;100.00;46508.03;5088512;28;20115;-61
2023/06/18 05:03:51;;;;;;;18.60;11.13;;;;;;;-145.18;100.00;46508.03;5068985;28;20499;-61
2023/06/18 05:06:16;;;;;;;19.03;10.80;;;;;;;-145.18;100.00;46515.84;5073261;28;20056;-62
2023/06/18 05:08:42;;;;;;;16.73;11.13;;;;;;;-145.18;100.00;46504.13;5064595;28;20111;-62
2023/06/18 05:11:07;;;;;;;17.17;10.20;;;;;;;-145.18;100.00;46510.00;5083745;28;20039;-61
2023/06/18 05:13:33;;;;;;;16.17;10.70;;;;;;;-145.18;100.00;46498.28;5068483;28;20521;-62
2023/06/18 05:15:59;;;;;;;15.10;10.43;;;;;;;-145.18;100.00;46498.28;5074992;28;20036;-62
2023/06/18 05:18:24;;;;;;;16.80;10.80;;;;;;;-145.18;100.00;46498.28;5075874;28;20055;-62
2023/06/18 05:20:50;;;;;;;13.00;10.53;;;;;;;-145.18;100.00;46488.50;5077687;28;20496;-62
2023/06/18 05:23:15;;;;;;;16.37;11.27;;;;;;;-145.18;100.00;46511.94;5076057;28;20056;-62
2023/06/18 05:25:40;;;;;;;15.90;11.63;;;;;;;-145.18;100.00;46531.47;5077415;28;20020;-62
2023/06/18 05:28:06;;;;;;;16.60;12.33;;;;;;;-145.18;100.00;46511.94;5075331;28;20089;-62
2023/06/18 05:30:31;;;;;;;14.10;11.23;;;;;;;-145.18;100.00;46494.38;5077888;28;20044;-62
2023/06/18 05:32:57;;;;;;;18.00;11.87;;;;;;;-145.18;100.00;46519.75;5056802;28;20123;-62
2023/06/18 05:35:22;;;;;;;15.43;11.80;;;;;;;-145.18;100.00;46533.44;5074278;28;20110;-62
2023/06/18 05:37:47;;;;;;;15.27;11.20;;;;;;;-145.18;100.00;46824.47;5056496;28;20028;-62
2023/06/18 05:40:13;;;;;;;14.80;11.13;;;;;;;-145.18;100.00;47137.03;5058317;28;20028;-61
2023/06/18 05:42:41;;;;;;;14.57;10.70;;;;;;;-145.18;100.00;47090.16;5073865;28;20047;-61
2023/06/18 05:45:07;;;;;;;12.73;10.43;;;;;;;-145.18;100.00;47064.75;5074915;28;20024;-62
2023/06/18 05:47:32;;;;;;;13.70;10.20;;;;;;;-145.18;100.00;47062.81;5072355;28;20112;-62
2023/06/18 05:49:58;;;;;;;13.80;10.33;;;;;;;-145.18;100.00;47062.81;5071856;28;20574;-62
2023/06/18 05:52:23;;;;;;;16.50;10.30;;;;;;;-145.18;100.00;47035.44;5047690;28;20035;-62
2023/06/18 05:54:48;;;;;;;22.30;10.37;;;;;;;-145.18;100.00;47043.28;5070224;28;20025;-62
2023/06/18 05:57:14;;;;;;;15.57;10.70;;;;;;;-145.18;100.00;47021.78;5017687;28;20033;-62
2023/06/18 05:59:39;;;;;;;14.93;10.67;;;;;;;-145.18;100.00;47033.50;5090047;28;20029;-62
2023/06/18 06:02:05;;;;;;;16.57;10.53;;;;;;;-145.18;100.00;47023.72;5070239;28;20078;-62
2023/06/18 06:04:31;;;;;;;15.30;9.57;;;;;;;-145.18;100.00;47033.50;5070071;28;20352;-59
2023/06/18 06:06:56;;;;;;;14.60;9.70;;;;;;;-145.18;100.00;47019.81;5065346;28;20029;-58
2023/06/18 06:09:22;;;;;;;15.77;11.10;;;;;;;-145.18;100.00;47025.69;5067941;28;20028;-59
2023/06/18 06:11:48;;;;;;;14.03;9.83;;;;;;;-145.18;100.00;47025.69;5064876;28;20480;-59
2023/06/18 06:14:13;;;;;;;12.73;9.47;;;;;;;-145.18;100.00;47039.34;5063683;28;20083;-59
2023/06/18 06:16:40;;;;;;;13.23;9.90;;;;;;;-145.18;100.00;47039.34;5068026;28;20048;-59
2023/06/18 06:19:06;;;;;;;14.27;9.07;;;;;;;-145.18;100.00;47037.41;5071097;28;20048;-59
2023/06/18 06:21:33;;;;;;;17.43;9.40;;;;;;;-145.18;100.00;47043.28;5047260;28;21457;-60
2023/06/18 06:23:58;;;;;;;15.37;10.73;;;;;;;-145.18;100.00;47047.19;5067291;28;20033;-58
2023/06/18 06:26:24;;;;;;;15.20;9.27;;;;;;;-145.18;100.00;47043.28;5066188;28;20029;-59
2023/06/18 06:28:49;;;;;;;13.77;9.77;;;;;;;-145.18;100.00;47047.19;5071060;28;20029;-59
2023/06/18 06:31:15;;;;;;;12.83;8.70;;;;;;;-145.18;100.00;47037.41;5064254;28;20071;-59
2023/06/18 06:33:40;;;;;;;12.40;8.23;;;;;;;-145.18;100.00;47041.31;5053302;28;20119;-58
2023/06/18 06:36:09;;;;;;;11.33;8.17;;;;;;;-145.18;100.00;47045.22;5071583;28;20365;-58
2023/06/18 06:38:35;;;;;;;12.70;8.20;;;;;;;-145.18;100.00;47035.44;5072107;28;20028;-59
2023/06/18 06:41:00;;;;;;;13.90;7.97;;;;;;;-145.18;100.00;47041.31;5054037;28;20035;-59
2023/06/18 06:43:25;;;;;;;13.07;8.27;;;;;;;-145.18;100.00;47019.81;5072292;28;20484;-58
2023/06/18 06:45:51;;;;;;;10.53;8.03;;;;;;;-145.18;100.00;47023.72;5053841;28;20113;-58
2023/06/18 06:48:16;;;;;;;12.33;8.37;;;;;;;-145.18;100.00;47029.59;5074617;28;20020;-58
2023/06/18 06:50:41;;;;;;;12.37;8.83;;;;;;;-145.18;100.00;47029.59;5106746;28;20060;-58
2023/06/18 06:53:07;;;;;;;15.20;8.87;;;;;;;-145.18;100.00;47023.72;5071546;28;20060;-58
2023/06/18 06:55:32;;;;;;;11.07;8.63;;;;;;;-145.18;100.00;47027.63;5081102;28;20024;-59
2023/06/18 06:57:59;;;;;;;14.50;9.70;;;;;;;-145.18;100.00;47010.06;5091692;28;20083;-59
2023/06/18 07:00:24;;;;;;;11.03;8.90;;;;;;;-145.18;100.00;47012.00;5082086;28;20029;-58
2023/06/18 07:02:50;;;;;;;14.23;8.93;;;;;;;-145.18;100.00;47019.81;5079000;28;20039;-58
2023/06/18 07:05:15;;;;;;;15.83;9.10;;;;;;;-145.18;100.00;47015.91;5085538;28;20356;-58
2023/06/18 07:07:40;;;;;;;12.87;8.87;;;;;;;-145.18;100.00;47012.00;5095213;28;20036;-58
2023/06/18 07:10:06;;;;;;;16.50;8.90;;;;;;;-145.18;100.00;47015.91;5095805;28;20028;-58
2023/06/18 07:12:31;;;;;;;12.07;8.53;;;;;;;-145.18;100.00;47000.28;5095419;28;20031;-59
2023/06/18 07:14:57;;;;;;;12.37;8.90;;;;;;;-145.18;100.00;47004.19;5085878;28;20024;-58
2023/06/18 07:17:22;;;;;;;10.70;8.53;;;;;;;-145.18;100.00;47000.28;5075380;28;20032;-58
2023/06/18 07:19:47;;;;;;;11.30;8.97;;;;;;;-145.18;100.00;47000.28;5074947;28;20048;-59
2023/06/18 07:22:13;;;;;;;12.07;8.13;;;;;;;-145.18;100.00;46986.63;5074713;28;20127;-59
2023/06/18 07:24:38;;;;;;;13.67;8.77;;;;;;;-145.18;100.00;46980.75;5075137;28;20074;-59
2023/06/18 07:27:04;;;;;;;14.23;8.83;;;;;;;-145.18;100.00;46980.75;5085014;28;20032;-59
2023/06/18 07:29:30;;;;;;;13.47;7.63;;;;;;;-145.18;100.00;46978.81;5093540;28;20475;-59
2023/06/18 07:31:55;;;;;;;10.60;7.07;;;;;;;-145.18;100.00;46980.75;5090396;28;20046;-59
2023/06/18 07:34:20;;;;;;;11.33;7.50;;;;;;;-145.18;100.00;46969.03;5092871;28;20103;-59
2023/06/18 07:36:46;;;;;;;11.70;7.30;;;;;;;-145.18;100.00;46976.84;5091105;28;20032;-58
2023/06/18 07:39:11;;;;;;;9.50;6.37;;;;;;;-145.18;100.00;46965.13;5095562;28;20123;-59
2023/06/18 07:41:37;;;;;;;13.13;7.80;;;;;;;-145.18;100.00;46984.66;5042142;28;20114;-59
2023/06/18 07:44:02;;;;;;;10.43;7.80;;;;;;;-145.18;100.00;46976.84;5077144;28;20029;-59
2023/06/18 07:46:27;;;;;;;10.57;6.83;;;;;;;-145.18;100.00;46976.84;5077394;28;20024;-58
2023/06/18 07:48:53;;;;;;;11.77;7.60;;;;;;;-145.18;100.00;46976.84;5075020;28;20459;-58
2023/06/18 07:51:18;;;;;;;8.77;7.20;;;;;;;-145.18;100.00;46992.47;5074559;28;20036;-59
2023/06/18 07:53:44;;;;;;;9.10;6.83;;;;;;;-145.18;100.00;46986.63;5074781;28;20503;-59
2023/06/18 07:56:10;;;;;;;8.37;6.47;;;;;;;-145.18;100.00;46957.31;5075716;28;20021;-59
2023/06/18 07:58:35;;;;;;;9.67;7.67;;;;;;;-145.18;100.00;46967.09;5075036;28;20162;-59
2023/06/18 08:01:00;;;;;;;10.87;6.73;;;;;;;-145.18;100.00;46984.66;5076122;28;20068;-59
2023/06/18 08:03:26;;;;;;;10.40;7.10;;;;;;;-145.18;100.00;46980.75;5074945;28;20033;-59
2023/06/18 08:05:51;;;;;;;10.27;7.50;;;;;;;-145.18;100.00;46971.00;5088612;28;20387;-58
2023/06/18 08:08:17;;;;;;;8.77;6.90;;;;;;;-145.18;100.00;46984.66;5075178;28;20024;-59
2023/06/18 08:10:42;;;;;;;9.83;6.90;;;;;;;-145.18;100.00;46967.09;5090658;28;20036;-59
2023/06/18 08:13:07;;;;;;;7.90;6.90;;;;;;;-145.18;100.00;46961.22;5079259;28;20446;-59
2023/06/18 08:15:33;;;;;;;9.93;6.57;;;;;;;-145.18;100.00;46971.00;5057921;28;20032;-59
2023/06/18 08:17:58;;;;;;;9.50;6.47;;;;;;;-145.18;100.00;46959.25;5084071;28;20420;-59
2023/06/18 08:20:23;;;;;;;9.67;6.43;;;;;;;-145.18;100.00;46943.63;5070275;28;20040;-59
2023/06/18 08:22:49;;;;;;;8.87;7.00;;;;;;;-145.18;100.00;46961.22;5090782;28;20024;-59
2023/06/18 08:25:15;;;;;;;8.03;6.73;;;;;;;-145.18;100.00;46959.25;5088620;28;20073;-59
2023/06/18 08:27:40;;;;;;;9.40;7.00;;;;;;;-145.18;100.00;46947.53;5083503;28;20028;-59
2023/06/18 08:30:06;;;;;;;8.47;7.23;;;;;;;-145.18;100.00;46961.22;5089263;28;20024;-59
2023/06/18 08:32:32;;;;;;;9.23;6.43;;;;;;;-145.18;100.00;46953.41;5083249;28;20415;-59
2023/06/18 08:34:57;;;;;;;8.00;6.60;;;;;;;-145.18;100.00;46961.22;5083133;28;20028;-59
2023/06/18 08:37:23;;;;;;;9.10;7.27;;;;;;;-145.18;100.00;46955.34;5076887;28;20484;-59
2023/06/18 08:39:48;;;;;;;11.52;6.97;;;;;;;-145.18;100.00;46976.84;5076255;28;20027;-59
2023/06/18 08:42:20;;;;;;;8.43;6.90;;;;;;;-145.18;100.00;46961.22;5059374;28;20025;-59
2023/06/18 08:44:46;;;;;;;7.55;6.40;;;;;;;-145.18;100.00;46953.41;5062508;28;20024;-59
2023/06/18 08:47:12;;;;;;;9.68;7.50;;;;;;;-145.18;100.00;46955.34;5076389;28;20070;-58
2023/06/18 08:49:41;;;;;;;8.33;5.93;;;;;;;-145.18;100.00;46969.03;5087560;28;20422;-59
2023/06/18 08:52:10;;;;;;;7.50;6.40;;;;;;;-145.18;100.00;46961.22;5093765;28;20015;-59
2023/06/18 08:54:37;;;;;;;7.77;6.10;;;;;;;-145.18;100.00;46951.44;5079502;28;20052;-59
2023/06/18 08:57:43;;;;;;;9.43;7.30;;;;;;;-145.18;100.00;46967.09;5092460;28;20524;-59
2023/06/18 09:00:09;;;;;;;12.07;6.53;;;;;;;-145.18;100.00;46959.25;5061068;28;20027;-58
2023/06/18 09:02:35;;;;;;;7.53;5.68;;;;;;;-145.18;100.00;46949.50;5073472;28;20041;-59
2023/06/18 09:05:04;;;;;;;6.97;6.00;;;;;;;-145.18;100.00;46965.13;5073954;28;20031;-59
2023/06/18 09:07:29;;;;;;;7.50;5.30;;;;;;;-145.18;100.00;46951.44;5073878;28;20024;-59
2023/06/18 09:09:55;;;;;;;8.67;5.87;;;;;;;-145.18;100.00;46953.41;5073429;28;20028;-59
2023/06/18 09:12:21;;;;;;;6.50;5.38;;;;;;;-145.18;100.00;46957.31;5073844;28;20388;-59
2023/06/18 09:14:46;;;;;;;9.15;6.47;;;;;;;-145.18;100.00;46955.34;5073450;28;20028;-59
2023/06/18 09:17:12;;;;;;;7.15;6.00;;;;;;;-145.18;100.00;46951.44;5073824;28;20024;-59
2023/06/18 09:19:37;;;;;;;8.43;6.57;;;;;;;-145.18;100.00;46949.50;5073222;28;20381;-59
2023/06/18 09:22:17;;;;;;;6.93;6.20;;;;;;;-145.18;100.00;46961.22;5072799;28;20074;-59
2023/06/18 09:24:43;;;;;;;7.97;6.22;;;;;;;-145.18;100.00;46957.31;5073339;28;20024;-59
2023/06/18 09:27:09;;;;;;;9.20;5.80;;;;;;;-145.18;100.00;46959.25;5075166;28;20020;-57
2023/06/18 09:29:37;;;;;;;7.43;5.93;;;;;;;-145.18;100.00;46957.31;5077664;28;20044;-59
2023/06/18 09:32:14;;;;;;;8.13;6.03;;;;;;;-145.18;100.00;46957.31;5089974;28;20099;-59
2023/06/18 09:34:40;;;;;;;5.85;5.20;;;;;;;-145.18;100.00;46961.22;5092173;28;20174;-63
2023/06/18 09:37:07;;;;;;;6.60;5.32;;;;;;;-145.18;100.00;46945.59;5092286;28;20546;-63
2023/06/18 09:39:35;;;;;;;6.03;5.40;;;;;;;-145.18;100.00;46972.94;5092661;28;20457;-63
2023/06/18 09:42:09;;;;;;;6.88;5.30;;;;;;;-145.18;100.00;46957.31;5092489;28;20020;-63
2023/06/18 09:44:35;;;;;;;5.90;5.15;;;;;;;-145.18;100.00;46965.13;5091105;28;20093;-63
2023/06/18 09:47:03;;;;;;;7.78;5.50;;;;;;;-145.18;100.00;46965.13;5073001;28;20036;-63
2023/06/18 09:49:29;;;;;;;7.47;6.18;;;;;;;-145.18;100.00;46978.81;5086836;28;20441;-63
2023/06/18 09:51:54;;;;;;;7.18;5.80;;;;;;;-145.18;100.00;46967.09;5082538;28;20036;-63
2023/06/18 09:54:21;;;;;;;7.68;6.05;;;;;;;-145.18;100.00;46961.22;5083266;28;20089;-63
2023/06/18 09:56:59;;;;;;;7.72;5.93;;;;;;;-145.18;100.00;46971.00;5082112;28;20024;-63
2023/06/18 09:59:25;;;;;;;16.92;6.35;;;;;;;-145.18;100.00;46971.00;5080076;28;20462;-63
2023/06/18 10:01:51;;;;;;;10.00;6.22;;;;;;;-145.18;100.00;46984.66;5088870;28;20032;-63
2023/06/18 10:04:17;;;;;;;6.97;5.85;;;;;;;-145.18;100.00;46974.91;5084544;28;20389;-63
2023/06/18 10:06:59;;;;;;;7.93;6.50;;;;;;;-145.18;100.00;46978.81;5080965;28;20027;-62
2023/06/18 10:09:35;;;;;;;7.67;5.93;;;;;;;-145.18;100.00;46994.44;5080949;28;20039;-62
2023/06/18 10:12:02;;;;;;;6.70;6.00;;;;;;;-145.18;100.00;46986.63;5084083;28;20032;-62
2023/06/18 10:14:29;;;;;;;8.37;5.80;;;;;;;-145.18;100.00;47000.28;5072426;28;20138;-62
2023/06/18 10:16:59;;;;;;;9.20;5.97;;;;;;;-145.18;100.00;47000.28;5084801;28;20032;-62
2023/06/18 10:19:27;;;;;;;12.07;6.68;;;;;;;-145.18;100.00;47000.28;5073144;28;20059;-62
2023/06/18 10:21:57;;;;;;;9.13;7.07;;;;;;;-145.18;100.00;47000.28;5084495;28;20099;-62
2023/06/18 10:24:32;;;;;;;9.33;6.30;;;;;;;-145.18;100.00;46986.63;5085715;28;20484;-62
2023/06/18 10:26:57;;;;;;;10.40;7.53;;;;;;;-145.18;100.00;46980.75;5083360;28;20479;-62
2023/06/18 10:29:23;;;;;;;10.63;6.47;;;;;;;-145.18;100.00;46990.53;5076834;28;20057;-62
2023/06/18 10:31:50;;;;;;;12.07;6.80;;;;;;;-145.18;100.00;46980.75;5083219;28;20372;-62
2023/06/18 10:34:17;;;;;;;7.85;6.60;;;;;;;-145.18;100.00;46990.53;5075764;28;20028;-62
2023/06/18 10:36:43;;;;;;;7.53;6.57;;;;;;;-145.18;100.00;46988.56;5074245;28;20494;-62
2023/06/18 10:39:09;;;;;;;10.50;6.33;;;;;;;-145.18;100.00;46998.34;5064492;28;20025;-62
2023/06/18 10:41:34;;;;;;;7.67;6.37;;;;;;;-145.18;100.00;46974.91;5074420;28;20417;-62
2023/06/18 10:44:00;;;;;;;8.80;6.60;;;;;;;-145.18;100.00;46986.63;5076504;28;20043;-58
2023/06/18 10:46:26;;;;;;;8.00;6.60;;;;;;;-145.18;100.00;46996.38;5072736;28;20032;-57
2023/06/18 10:49:17;;;;;;;8.18;6.10;;;;;;;-145.18;100.00;46980.75;5066866;28;20055;-58
2023/06/18 10:52:10;;;;;;;7.25;6.22;;;;;;;-145.18;100.00;46990.53;5082883;28;20055;-58
2023/06/18 10:54:37;;;;;;;8.75;5.80;;;;;;;-145.18;100.00;46992.47;5074478;28;20503;-58
2023/06/18 10:57:04;;;;;;;10.37;6.03;;;;;;;-145.18;100.00;46988.56;5084272;28;20025;-58
2023/06/18 10:59:58;;;;;;;9.87;6.23;;;;;;;-145.18;100.00;46994.44;5074015;28;20032;-58
2023/06/18 11:02:37;;;;;;;6.10;5.03;;;;;;;-145.18;100.00;46994.44;5079519;28;20066;-57
2023/06/18 11:05:03;;;;;;;7.68;4.53;;;;;;;-145.18;100.00;46982.72;5058875;28;20036;-58